Terminal Aerodrome Forecast
Issued by NWS Buffalo, NY

Home | Current Version | Previous Version | Text Only | Print | Product List | Glossary On
Versions: 1 2 3 4 5 6 7 8 9 10 11 12 13 14 15 16 17 18 19 20 21 22 23 24 25 26 27 28 29
468
FTUS41 KBUF 211502 AAA
TAFART
TAF AMD
KART 211502Z 2115/2212 24006KT P6SM BKN008 OVC011
     FM212100 22004KT P6SM OVC020
     FM220100 00000KT P6SM OVC025
     FM220500 VRB03KT P6SM -DZ OVC015=

USA.gov is the U.S. government's official web portal to all federal, state and local government web resources and services.